createdAt,value
2022-12-12T00:00:46.387Z,5.13
2022-12-12T00:02:48.140Z,5.20
2022-12-12T00:04:49.815Z,5.23
2022-12-12T00:06:51.553Z,5.19
2022-12-12T00:08:53.617Z,5.22
2022-12-12T00:10:55.218Z,5.09
2022-12-12T00:12:56.903Z,5.17
2022-12-12T00:14:58.572Z,5.20
2022-12-12T00:17:00.228Z,5.05
2022-12-12T00:19:01.961Z,5.06
2022-12-12T00:21:06.891Z,5.06
2022-12-12T00:23:08.602Z,5.10
2022-12-12T00:25:10.658Z,5.19
2022-12-12T00:27:12.599Z,5.26
2022-12-12T00:29:14.355Z,5.32
2022-12-12T00:31:16.861Z,5.32
2022-12-12T00:33:19.087Z,5.31
2022-12-12T00:35:20.766Z,5.03
2022-12-12T00:37:22.449Z,5.05
2022-12-12T00:39:24.173Z,5.04
2022-12-12T00:41:26.143Z,5.12
2022-12-12T00:43:28.302Z,5.25
2022-12-12T00:45:29.959Z,5.34
2022-12-12T00:47:31.700Z,5.44
2022-12-12T00:49:33.506Z,5.50
2022-12-12T00:51:35.344Z,5.58
2022-12-12T00:53:38.490Z,5.61
2022-12-12T00:55:40.227Z,5.57
2022-12-12T00:57:41.842Z,5.57
2022-12-12T00:59:49.306Z,5.63
2022-12-12T01:01:50.947Z,5.70
2022-12-12T01:03:53.954Z,5.71
2022-12-12T01:05:55.635Z,5.69
2022-12-12T01:07:57.414Z,5.72
2022-12-12T01:09:59.281Z,5.78
2022-12-12T01:12:00.940Z,5.80
2022-12-12T01:14:02.770Z,5.85
2022-12-12T01:16:06.074Z,5.90
2022-12-12T01:18:08.120Z,5.95
2022-12-12T01:20:20.018Z,5.99
2022-12-12T01:22:23.428Z,6.00
2022-12-12T01:24:25.057Z,6.02
2022-12-12T01:26:26.699Z,6.03
2022-12-12T01:28:31.559Z,6.04
2022-12-12T01:30:33.403Z,6.06
2022-12-12T01:32:35.035Z,5.92
2022-12-12T01:34:36.654Z,5.57
2022-12-12T01:36:38.372Z,5.36
2022-12-12T01:38:39.975Z,5.23
2022-12-12T01:40:41.589Z,5.25
2022-12-12T01:42:43.371Z,5.36
2022-12-12T01:44:51.277Z,5.43
2022-12-12T01:46:52.953Z,5.42
2022-12-12T01:49:23.470Z,5.07
2022-12-12T01:51:26.597Z,5.02
2022-12-12T01:53:29.700Z,5.02
2022-12-12T01:55:31.366Z,5.04
2022-12-12T01:57:36.947Z,5.10
2022-12-12T01:59:39.949Z,5.13
2022-12-12T02:01:42.353Z,5.18
2022-12-12T02:03:44.573Z,5.24
2022-12-12T02:05:55.311Z,5.33
2022-12-12T02:07:59.171Z,5.37
2022-12-12T02:10:00.717Z,5.38
2022-12-12T02:12:02.721Z,5.41
2022-12-12T02:14:04.416Z,5.44
2022-12-12T02:16:21.352Z,5.34
2022-12-12T02:18:37.091Z,5.21
2022-12-12T02:21:03.579Z,5.17
2022-12-12T02:23:35.943Z,5.12
2022-12-12T02:25:56.058Z,5.13
2022-12-12T02:28:00.456Z,5.17
2022-12-12T02:30:09.992Z,5.18
2022-12-12T02:32:48.920Z,5.04
2022-12-12T02:35:00.590Z,4.96
2022-12-12T02:37:32.791Z,4.95
2022-12-12T02:39:43.250Z,4.93
2022-12-12T02:41:59.840Z,4.91
2022-12-12T02:44:07.953Z,4.96
2022-12-12T02:46:28.599Z,4.99
2022-12-12T02:48:54.847Z,5.01
2022-12-12T02:50:58.974Z,5.04
2022-12-12T02:53:00.855Z,5.06
2022-12-12T02:55:03.162Z,5.08
2022-12-12T02:57:12.188Z,5.06
2022-12-12T02:59:52.369Z,5.02
2022-12-12T03:02:12.687Z,5.03
2022-12-12T03:05:02.838Z,4.99
2022-12-12T03:07:30.908Z,5.01
2022-12-12T03:09:36.392Z,5.00
2022-12-12T03:12:06.231Z,5.02
2022-12-12T03:14:25.324Z,5.02
2022-12-12T03:16:56.094Z,5.06
2022-12-12T03:18:57.664Z,5.01
2022-12-12T03:21:28.859Z,5.01
2022-12-12T03:23:38.674Z,5.01
2022-12-12T03:25:48.411Z,4.98
2022-12-12T03:28:02.410Z,4.97
2022-12-12T03:30:08.542Z,4.97
2022-12-12T03:32:16.778Z,4.91
2022-12-12T03:34:21.246Z,4.84
2022-12-12T03:36:27.110Z,4.84
2022-12-12T03:38:32.357Z,4.83
2022-12-12T03:40:41.620Z,4.74
2022-12-12T03:42:47.669Z,4.78
2022-12-12T03:44:53.797Z,4.81
2022-12-12T03:47:00.381Z,4.79
2022-12-12T03:49:04.994Z,4.68
2022-12-12T03:51:14.518Z,4.64
2022-12-12T03:53:27.661Z,4.64
2022-12-12T03:55:43.799Z,4.62
2022-12-12T03:57:59.381Z,4.60
2022-12-12T04:00:07.405Z,4.64
2022-12-12T04:02:19.755Z,4.71
2022-12-12T04:04:31.649Z,4.71
2022-12-12T04:06:39.482Z,4.60
2022-12-12T04:09:01.084Z,4.60
2022-12-12T04:11:32.556Z,4.64
2022-12-12T04:13:40.205Z,4.54
2022-12-12T04:15:54.308Z,4.48
2022-12-12T04:18:12.161Z,4.52
2022-12-12T04:20:43.201Z,4.57
2022-12-12T04:23:17.902Z,4.59
2022-12-12T04:25:34.711Z,4.66
2022-12-12T04:27:44.599Z,4.66
2022-12-12T04:30:03.506Z,4.65
2022-12-12T04:32:08.276Z,4.70
2022-12-12T04:34:13.746Z,4.68
2022-12-12T04:36:17.268Z,4.65
2022-12-12T04:38:23.571Z,4.67
2022-12-12T04:40:28.619Z,4.69
2022-12-12T04:42:33.569Z,4.78
2022-12-12T04:44:37.123Z,4.83
2022-12-12T04:46:39.180Z,4.72
2022-12-12T04:48:46.445Z,4.64
2022-12-12T04:50:50.066Z,4.66
2022-12-12T04:52:53.950Z,4.65
2022-12-12T04:55:04.461Z,4.65
2022-12-12T04:57:08.885Z,4.66
2022-12-12T04:59:10.521Z,4.69
2022-12-12T05:01:53.597Z,4.77
2022-12-12T05:04:04.940Z,4.81
2022-12-12T05:06:09.965Z,4.83
2022-12-12T05:08:26.993Z,4.84
2022-12-12T05:10:28.852Z,4.67
2022-12-12T05:12:30.556Z,4.61
2022-12-12T05:14:32.307Z,4.54
2022-12-12T05:16:38.847Z,4.54
2022-12-12T05:18:40.496Z,4.51
2022-12-12T05:20:42.116Z,4.54
2022-12-12T05:22:43.780Z,4.59
2022-12-12T05:24:45.365Z,4.66
2022-12-12T05:26:47.150Z,4.70
2022-12-12T05:28:49.119Z,4.77
2022-12-12T05:30:50.788Z,4.77
2022-12-12T05:32:52.447Z,4.81
2022-12-12T05:34:54.126Z,4.80
2022-12-12T05:36:55.768Z,4.79
2022-12-12T05:38:57.425Z,4.78
2022-12-12T05:40:59.069Z,4.77
2022-12-12T05:43:01.134Z,4.80
2022-12-12T05:45:02.801Z,4.78
2022-12-12T05:47:04.651Z,4.80
2022-12-12T05:49:06.292Z,4.81
2022-12-12T05:51:07.897Z,4.71
2022-12-12T05:53:09.667Z,4.64
2022-12-12T05:55:11.888Z,4.65
2022-12-12T05:57:13.692Z,4.62
2022-12-12T05:59:15.640Z,4.69
2022-12-12T06:01:17.357Z,4.79
2022-12-12T06:03:19.236Z,4.85
2022-12-12T06:05:20.975Z,4.87
2022-12-12T06:07:22.659Z,4.69
2022-12-12T06:09:24.535Z,4.40
2022-12-12T06:11:26.214Z,4.20
2022-12-12T06:13:27.888Z,4.02
2022-12-12T06:15:29.765Z,3.93
2022-12-12T06:17:33.528Z,3.90
2022-12-12T06:19:35.229Z,3.74
2022-12-12T06:21:36.841Z,3.36
2022-12-12T06:23:42.909Z,3.26
2022-12-12T06:25:44.527Z,3.17
2022-12-12T06:27:46.131Z,3.31
2022-12-12T06:29:48.167Z,3.46
2022-12-12T06:31:49.856Z,3.51
2022-12-12T06:33:51.672Z,3.19
2022-12-12T06:36:11.881Z,3.01
2022-12-12T06:38:13.748Z,2.89
2022-12-12T06:40:15.576Z,2.81
2022-12-12T06:42:17.175Z,2.97
2022-12-12T06:44:19.006Z,3.21
2022-12-12T06:46:26.116Z,3.45
2022-12-12T06:48:27.811Z,3.61
2022-12-12T06:50:29.473Z,3.56
2022-12-12T06:52:31.430Z,3.41
2022-12-12T06:54:33.003Z,3.45
2022-12-12T06:56:34.569Z,3.37
2022-12-12T06:58:36.877Z,3.53
2022-12-12T07:00:38.538Z,3.79
2022-12-12T07:02:40.230Z,3.72
2022-12-12T07:04:41.940Z,3.55
2022-12-12T07:06:43.569Z,3.52
2022-12-12T07:08:45.188Z,3.63
2022-12-12T07:10:47.096Z,3.85
2022-12-12T07:12:51.111Z,3.89
2022-12-12T07:14:56.209Z,3.78
2022-12-12T07:16:58.181Z,3.58
2022-12-12T07:18:59.996Z,3.25
2022-12-12T07:21:05.474Z,3.25
2022-12-12T07:23:07.480Z,3.30
2022-12-12T07:25:09.185Z,3.16
2022-12-12T07:27:10.916Z,3.12
2022-12-12T07:29:12.517Z,3.11
2022-12-12T07:31:17.059Z,3.26
2022-12-12T07:33:18.888Z,3.25
2022-12-12T07:35:20.468Z,3.45
2022-12-12T07:37:22.262Z,3.63
2022-12-12T07:39:23.896Z,3.87
2022-12-12T07:41:25.586Z,4.06
2022-12-12T07:43:27.497Z,4.24
2022-12-12T07:45:29.186Z,4.42
2022-12-12T07:47:30.785Z,4.57
2022-12-12T07:49:32.841Z,4.67
2022-12-12T07:51:34.736Z,4.71
2022-12-12T07:53:36.327Z,4.48
2022-12-12T07:55:40.384Z,4.33
2022-12-12T07:57:42.125Z,4.35
2022-12-12T07:59:43.753Z,4.52
2022-12-12T08:01:45.426Z,4.71
2022-12-12T08:03:47.931Z,4.84
2022-12-12T08:05:49.564Z,5.01
2022-12-12T08:07:51.265Z,5.13
2022-12-12T08:09:53.259Z,5.24
2022-12-12T08:11:57.093Z,5.22
2022-12-12T08:13:58.698Z,5.31
2022-12-12T08:16:00.641Z,5.33
2022-12-12T08:18:02.336Z,5.40
2022-12-12T08:20:04.058Z,5.48
2022-12-12T08:22:05.637Z,5.50
2022-12-12T08:24:07.218Z,5.53
2022-12-12T08:26:11.223Z,5.62
2022-12-12T08:28:13.013Z,5.70
2022-12-12T08:30:14.778Z,5.78
2022-12-12T08:32:16.402Z,5.72
2022-12-12T08:34:18.038Z,5.69
2022-12-12T08:36:25.918Z,5.51
2022-12-12T08:38:29.033Z,5.39
2022-12-12T08:40:30.681Z,5.38
2022-12-12T08:42:32.495Z,5.54
2022-12-12T08:44:34.104Z,5.65
2022-12-12T08:46:35.966Z,5.74
2022-12-12T08:48:37.935Z,5.86
2022-12-12T08:50:41.233Z,6.01
2022-12-12T08:52:42.797Z,6.09
2022-12-12T08:54:44.469Z,6.21
2022-12-12T08:56:46.240Z,6.26
2022-12-12T08:58:48.135Z,6.29
2022-12-12T09:00:50.414Z,6.19
2022-12-12T09:02:52.099Z,6.25
2022-12-12T09:04:53.802Z,6.26
2022-12-12T09:06:55.453Z,6.29
2022-12-12T09:08:57.586Z,6.36
2022-12-12T09:10:59.429Z,6.49
2022-12-12T09:13:01.033Z,6.56
2022-12-12T09:15:02.999Z,6.64
2022-12-12T09:17:04.646Z,6.70
2022-12-12T09:19:06.309Z,6.72
2022-12-12T09:21:08.408Z,6.68
2022-12-12T09:23:09.956Z,6.72
2022-12-12T09:25:12.171Z,6.76
2022-12-12T09:27:14.270Z,6.76
2022-12-12T09:29:15.923Z,6.75
2022-12-12T09:31:17.607Z,6.82
2022-12-12T09:33:20.009Z,6.84
2022-12-12T09:35:21.559Z,6.89
2022-12-12T09:37:23.237Z,6.92
2022-12-12T09:39:24.922Z,6.90
2022-12-12T09:41:30.765Z,6.92
2022-12-12T09:43:51.616Z,6.94
2022-12-12T09:45:53.618Z,7.05
2022-12-12T09:47:58.244Z,7.12
2022-12-12T09:50:04.373Z,7.11
2022-12-12T09:52:06.233Z,7.09
2022-12-12T09:54:13.326Z,7.11
2022-12-12T09:57:07.519Z,7.15
2022-12-12T09:59:11.888Z,7.17
2022-12-12T10:01:26.203Z,7.20
2022-12-12T10:04:05.113Z,7.22
2022-12-12T10:09:11.451Z,7.45
2022-12-12T10:11:42.332Z,7.29
2022-12-12T10:13:44.013Z,7.24
2022-12-12T10:15:55.217Z,7.23
2022-12-12T10:17:59.052Z,7.24
2022-12-12T10:20:12.701Z,7.24
2022-12-12T10:22:43.309Z,7.33
2022-12-12T10:24:47.827Z,7.39
2022-12-12T10:26:49.416Z,7.52
2022-12-12T10:28:57.779Z,7.63
2022-12-12T10:31:14.776Z,7.59
2022-12-12T10:33:19.007Z,7.70
2022-12-12T10:35:30.810Z,7.59
2022-12-12T10:37:44.505Z,7.62
2022-12-12T10:40:01.184Z,7.43
2022-12-12T10:42:23.649Z,7.59
2022-12-12T10:44:34.218Z,7.67
2022-12-12T10:47:05.838Z,7.47
2022-12-12T10:49:19.552Z,7.28
2022-12-12T10:51:23.297Z,7.26
2022-12-12T10:53:24.897Z,7.07
2022-12-12T10:55:48.499Z,6.84
2022-12-12T10:58:04.199Z,6.98
2022-12-12T11:00:35.329Z,7.04
2022-12-12T11:02:39.957Z,7.18
2022-12-12T11:04:44.893Z,7.29
2022-12-12T11:06:49.649Z,7.36
2022-12-12T11:09:20.973Z,7.26
2022-12-12T11:11:25.213Z,7.14
2022-12-12T11:13:27.132Z,7.02
2022-12-12T11:15:51.752Z,6.59
2022-12-12T11:17:53.409Z,6.45
2022-12-12T11:19:57.483Z,6.44
2022-12-12T11:22:03.679Z,6.36
2022-12-12T11:24:13.187Z,6.54
2022-12-12T11:26:17.651Z,6.30
2022-12-12T11:28:22.888Z,6.21
2022-12-12T11:30:40.026Z,6.37
2022-12-12T11:32:44.715Z,6.55
2022-12-12T11:34:49.935Z,6.56
2022-12-12T11:36:51.626Z,6.33
2022-12-12T11:38:55.603Z,6.34
2022-12-12T11:41:07.068Z,6.25
2022-12-12T11:43:23.931Z,6.22
2022-12-12T11:45:25.523Z,6.33
2022-12-12T11:47:38.660Z,6.48
2022-12-12T11:49:46.906Z,6.52
2022-12-12T11:51:49.203Z,6.70
2022-12-12T11:53:50.798Z,6.71
2022-12-12T11:56:04.470Z,6.41
2022-12-12T11:58:12.244Z,6.47
2022-12-12T12:00:17.891Z,6.70
2022-12-12T12:02:41.478Z,6.88
2022-12-12T12:04:58.938Z,6.25
2022-12-12T12:07:22.263Z,5.97
2022-12-12T12:09:23.964Z,5.83
2022-12-12T12:11:39.658Z,5.87
2022-12-12T12:13:57.473Z,5.50
2022-12-12T12:16:12.361Z,5.54
2022-12-12T12:18:37.007Z,5.70
2022-12-12T12:21:08.843Z,5.84
2022-12-12T12:23:19.730Z,5.95
2022-12-12T12:25:42.389Z,6.20
2022-12-12T12:28:04.217Z,6.37
2022-12-12T12:30:22.273Z,6.55
2022-12-12T12:32:29.543Z,6.80
2022-12-12T12:35:05.028Z,7.02
2022-12-12T12:37:34.463Z,7.22
2022-12-12T12:39:54.759Z,7.39
2022-12-12T12:42:16.909Z,7.52
2022-12-12T12:44:44.588Z,7.64
2022-12-12T12:47:07.685Z,7.64
2022-12-12T12:49:14.823Z,7.45
2022-12-12T12:51:22.406Z,7.45
2022-12-12T12:53:43.712Z,7.57
2022-12-12T12:55:48.884Z,7.64
2022-12-12T12:57:51.818Z,7.71
2022-12-12T12:59:57.375Z,7.62
2022-12-12T13:02:03.431Z,7.50
2022-12-12T13:04:12.986Z,7.57
2022-12-12T13:06:30.462Z,7.75
2022-12-12T13:08:53.719Z,7.31
2022-12-12T13:11:04.257Z,7.21
2022-12-12T13:13:30.655Z,7.34
2022-12-12T13:15:40.953Z,7.44
2022-12-12T13:18:10.494Z,7.30
2022-12-12T13:20:16.923Z,7.22
2022-12-12T13:22:48.881Z,7.28
2022-12-12T13:25:00.192Z,7.32
2022-12-12T13:27:11.614Z,7.34
2022-12-12T13:29:34.472Z,7.39
2022-12-12T13:32:04.016Z,7.52
2022-12-12T13:34:17.368Z,7.35
2022-12-12T13:36:30.234Z,7.27
2022-12-12T13:38:33.473Z,7.33
2022-12-12T13:40:40.266Z,7.28
2022-12-12T13:42:57.057Z,7.27
2022-12-12T13:45:37.912Z,7.30
2022-12-12T13:47:59.520Z,7.37
2022-12-12T13:50:06.849Z,7.49
2022-12-12T13:52:26.115Z,7.53
2022-12-12T13:54:27.643Z,6.81
2022-12-12T13:56:35.156Z,6.67
2022-12-12T13:58:36.760Z,6.76
2022-12-12T14:00:39.869Z,6.94
2022-12-12T14:02:44.494Z,6.96
2022-12-12T14:04:46.757Z,6.94
2022-12-12T14:07:13.188Z,6.73
2022-12-12T14:09:21.748Z,6.45
2022-12-12T14:11:34.924Z,6.33
2022-12-12T14:13:42.941Z,6.40
2022-12-12T14:15:45.367Z,6.28
2022-12-12T14:18:18.134Z,6.22
2022-12-12T14:20:41.077Z,6.44
2022-12-12T14:22:45.714Z,6.50
2022-12-12T14:25:11.842Z,6.54
2022-12-12T14:27:13.532Z,6.65
2022-12-12T14:29:18.087Z,6.81
2022-12-12T14:31:20.100Z,6.95
2022-12-12T14:33:49.231Z,7.08
2022-12-12T14:35:59.903Z,7.20
2022-12-12T14:38:20.188Z,7.20
2022-12-12T14:40:31.256Z,7.09
2022-12-12T14:43:21.231Z,6.84
2022-12-12T14:44:59.520Z,6.82
2022-12-12T14:47:07.501Z,6.78
2022-12-12T14:49:14.561Z,6.66
2022-12-12T14:51:29.534Z,6.66
2022-12-12T14:53:54.645Z,6.32
2022-12-12T14:55:57.292Z,6.21
2022-12-12T14:57:59.055Z,6.18
2022-12-12T15:00:01.313Z,6.22
2022-12-12T15:02:14.927Z,6.21
2022-12-12T15:04:31.538Z,6.30
2022-12-12T15:06:34.927Z,6.12
2022-12-12T15:08:36.591Z,6.19
2022-12-12T15:10:38.248Z,6.07
2022-12-12T15:12:43.807Z,6.14
2022-12-12T15:14:48.614Z,6.01
2022-12-12T15:17:04.721Z,5.83
2022-12-12T15:19:13.497Z,5.46
2022-12-12T15:21:15.754Z,5.31
2022-12-12T15:23:19.056Z,5.12
2022-12-12T15:25:23.239Z,5.08
2022-12-12T15:27:25.153Z,4.84
2022-12-12T15:29:29.296Z,4.70
2022-12-12T15:31:31.048Z,4.69
2022-12-12T15:33:37.812Z,4.85
2022-12-12T15:35:39.492Z,5.00
2022-12-12T15:37:41.123Z,4.83
2022-12-12T15:39:42.729Z,4.82
2022-12-12T15:41:44.915Z,4.77
2022-12-12T15:43:46.662Z,4.86
2022-12-12T15:45:55.015Z,5.08
2022-12-12T15:47:57.332Z,5.27
2022-12-12T15:50:20.945Z,5.09
2022-12-12T15:52:26.950Z,4.62
2022-12-12T15:54:28.619Z,4.46
2022-12-12T15:56:30.266Z,4.11
2022-12-12T15:58:37.237Z,3.79
2022-12-12T16:00:39.716Z,3.80
2022-12-12T16:02:42.493Z,3.83
2022-12-12T16:05:13.383Z,3.39
2022-12-12T16:07:21.598Z,3.44
2022-12-12T16:09:24.494Z,3.42
2022-12-12T16:11:51.833Z,3.78
2022-12-12T16:13:53.486Z,3.99
2022-12-12T16:15:55.135Z,3.71
2022-12-12T16:18:06.830Z,3.77
2022-12-12T16:20:13.969Z,3.37
2022-12-12T16:22:32.886Z,3.48
2022-12-12T16:24:45.720Z,3.69
2022-12-12T16:26:47.487Z,3.77
2022-12-12T16:28:49.215Z,3.88
2022-12-12T16:30:54.218Z,4.00
2022-12-12T16:32:55.857Z,4.04
2022-12-12T16:34:57.420Z,4.04
2022-12-12T16:36:59.005Z,4.08
2022-12-12T16:39:00.565Z,4.20
2022-12-12T16:41:07.122Z,4.23
2022-12-12T16:43:17.579Z,4.26
2022-12-12T16:45:19.186Z,4.24
2022-12-12T16:47:23.155Z,4.26
2022-12-12T16:49:24.570Z,4.32
2022-12-12T16:51:31.154Z,4.34
2022-12-12T16:53:34.711Z,4.24
2022-12-12T16:55:37.631Z,4.42
2022-12-12T16:57:39.220Z,4.53
2022-12-12T16:59:40.982Z,4.60
2022-12-12T17:01:42.666Z,4.67
2022-12-12T17:03:44.452Z,4.61
2022-12-12T17:05:47.305Z,4.60
2022-12-12T17:07:51.035Z,4.51
2022-12-12T17:09:52.663Z,4.43
2022-12-12T17:11:54.418Z,4.40
2022-12-12T17:13:56.020Z,4.43
2022-12-12T17:15:57.690Z,4.41
2022-12-12T17:18:00.119Z,4.24
2022-12-12T17:20:01.738Z,4.25
2022-12-12T17:22:03.654Z,4.14
2022-12-12T17:24:05.470Z,4.03
2022-12-12T17:26:07.152Z,3.89
2022-12-12T17:28:13.526Z,3.66
2022-12-12T17:30:15.513Z,3.50
2022-12-12T17:32:22.816Z,3.31
2022-12-12T17:34:25.893Z,3.03
2022-12-12T17:36:27.585Z,2.94
2022-12-12T17:38:30.986Z,2.96
2022-12-12T17:40:32.579Z,2.84
2022-12-12T17:42:34.216Z,2.91
2022-12-12T17:44:35.908Z,2.72
2022-12-12T17:46:37.504Z,2.57
2022-12-12T17:48:39.104Z,2.39
2022-12-12T17:50:41.981Z,2.49
2022-12-12T17:52:43.734Z,2.59
2022-12-12T17:55:54.169Z,2.57
2022-12-12T17:57:07.072Z,2.44
2022-12-12T17:59:08.987Z,2.35
2022-12-12T18:01:10.758Z,2.29
2022-12-12T18:03:12.400Z,2.31
2022-12-12T18:05:19.468Z,2.25
2022-12-12T18:07:21.146Z,2.31
2022-12-12T18:09:22.808Z,2.32
2022-12-12T18:11:27.412Z,2.37
2022-12-12T18:13:29.153Z,2.41
2022-12-12T18:15:31.038Z,2.50
2022-12-12T18:17:32.728Z,2.43
2022-12-12T18:19:34.835Z,2.42
2022-12-12T18:22:00.387Z,2.51
2022-12-12T18:23:58.974Z,2.54
2022-12-12T18:26:05.611Z,2.53
2022-12-12T18:28:07.267Z,2.42
2022-12-12T18:30:09.556Z,2.47
2022-12-12T18:32:11.208Z,2.52
2022-12-12T18:34:12.834Z,2.57
2022-12-12T18:36:16.390Z,2.59
2022-12-12T18:38:19.385Z,2.53
2022-12-12T18:40:21.191Z,2.52
2022-12-12T18:42:22.792Z,2.59
2022-12-12T18:44:24.423Z,2.53
2022-12-12T18:46:27.375Z,2.57
2022-12-12T18:48:29.328Z,2.60
2022-12-12T18:50:33.134Z,2.67
2022-12-12T18:52:34.834Z,2.75
2022-12-12T18:54:36.436Z,2.82
2022-12-12T18:56:38.166Z,2.83
2022-12-12T18:58:40.058Z,2.80
2022-12-12T19:00:41.861Z,2.72
2022-12-12T19:02:43.539Z,2.75
2022-12-12T19:04:47.071Z,2.79
2022-12-12T19:06:48.758Z,2.80
2022-12-12T19:08:50.452Z,2.90
2022-12-12T19:10:52.071Z,3.03
2022-12-12T19:12:53.610Z,3.13
2022-12-12T19:17:20.752Z,3.28
2022-12-12T19:19:27.046Z,3.28
2022-12-12T19:21:28.667Z,3.23
2022-12-12T19:23:30.339Z,3.30
2022-12-12T19:25:37.633Z,3.26
2022-12-12T19:27:42.822Z,3.23
2022-12-12T19:29:44.457Z,3.23
2022-12-12T19:31:46.358Z,3.31
2022-12-12T19:33:48.140Z,3.35
2022-12-12T19:35:49.702Z,3.41
2022-12-12T19:37:51.260Z,3.42
2022-12-12T19:39:53.337Z,3.07
2022-12-12T19:41:55.268Z,2.92
2022-12-12T19:44:01.507Z,2.96
2022-12-12T19:46:09.078Z,3.11
2022-12-12T19:48:11.650Z,3.16
2022-12-12T19:50:13.653Z,3.19
2022-12-12T19:52:15.475Z,3.22
2022-12-12T19:54:19.388Z,3.26
2022-12-12T19:56:21.795Z,3.25
2022-12-12T19:58:23.346Z,3.27
2022-12-12T20:00:25.985Z,3.22
2022-12-12T20:02:27.690Z,3.20
2022-12-12T20:04:30.418Z,3.18
2022-12-12T20:06:42.099Z,3.06
2022-12-12T20:08:43.818Z,3.08
2022-12-12T20:10:45.425Z,3.13
2022-12-12T20:12:57.873Z,2.95
2022-12-12T20:15:00.200Z,3.00
2022-12-12T20:17:03.200Z,2.99
2022-12-12T20:19:05.066Z,2.59
2022-12-12T20:21:07.626Z,1.87
2022-12-12T20:23:09.279Z,1.17
2022-12-12T20:25:10.992Z,1.03
2022-12-12T20:27:12.753Z,1.34
2022-12-12T20:29:14.808Z,1.52
2022-12-12T20:31:23.281Z,1.77
2022-12-12T20:33:24.907Z,1.84
2022-12-12T20:35:26.681Z,1.88
2022-12-12T20:37:28.328Z,1.82
2022-12-12T20:39:29.966Z,1.82
2022-12-12T20:41:34.253Z,1.66
2022-12-12T20:43:36.159Z,1.56
2022-12-12T20:45:38.633Z,1.69
2022-12-12T20:47:40.230Z,1.82
2022-12-12T20:49:42.423Z,1.82
2022-12-12T20:51:55.455Z,1.72
2022-12-12T20:54:03.023Z,1.64
2022-12-12T20:56:11.043Z,1.66
2022-12-12T20:58:12.956Z,1.70
2022-12-12T21:00:15.577Z,1.69
2022-12-12T21:02:17.502Z,1.50
2022-12-12T21:04:19.522Z,1.44
2022-12-12T21:06:22.548Z,1.43
2022-12-12T21:08:24.358Z,1.40
2022-12-12T21:10:26.288Z,1.34
2022-12-12T21:12:27.955Z,1.43
2022-12-12T21:14:30.913Z,1.47
2022-12-12T21:16:35.329Z,1.55
2022-12-12T21:18:37.621Z,1.57
2022-12-12T21:20:44.322Z,1.69
2022-12-12T21:22:45.988Z,1.70
2022-12-12T21:24:47.563Z,1.74
2022-12-12T21:26:49.192Z,1.73
2022-12-12T21:28:51.290Z,1.73
2022-12-12T21:30:52.918Z,1.69
2022-12-12T21:32:54.857Z,1.64
2022-12-12T21:34:56.463Z,1.58
2022-12-12T21:36:58.055Z,1.66
2022-12-12T21:39:00.827Z,1.70
2022-12-12T21:41:10.632Z,1.71
2022-12-12T21:43:12.460Z,1.71
2022-12-12T21:45:16.179Z,1.65
2022-12-12T21:47:18.129Z,1.76
2022-12-12T21:49:19.765Z,1.84
2022-12-12T21:51:21.433Z,1.86
2022-12-12T21:53:34.891Z,1.85
2022-12-12T21:55:37.999Z,1.87
2022-12-12T21:57:39.733Z,1.94
2022-12-12T21:59:42.000Z,2.07
2022-12-12T22:01:44.026Z,2.11
2022-12-12T22:03:47.008Z,2.09
2022-12-12T22:05:48.633Z,2.13
2022-12-12T22:07:50.300Z,2.17
2022-12-12T22:09:57.638Z,2.20
2022-12-12T22:12:12.334Z,2.20
2022-12-12T22:14:21.542Z,2.20
2022-12-12T22:16:23.398Z,2.25
2022-12-12T22:18:25.364Z,2.23
2022-12-12T22:20:27.213Z,2.27
2022-12-12T22:22:29.127Z,2.30
2022-12-12T22:24:30.663Z,2.32
2022-12-12T22:26:35.134Z,2.32
2022-12-12T22:28:36.691Z,2.32
2022-12-12T22:30:38.879Z,2.18
2022-12-12T22:32:40.474Z,2.24
2022-12-12T22:34:42.119Z,2.23
2022-12-12T22:36:45.107Z,2.24
2022-12-12T22:38:46.694Z,2.35
2022-12-12T22:40:54.976Z,2.33
2022-12-12T22:42:57.606Z,2.21
2022-12-12T22:44:59.222Z,2.19
2022-12-12T22:47:01.355Z,2.23
2022-12-12T22:49:03.161Z,2.14
2022-12-12T22:51:14.381Z,2.04
2022-12-12T22:53:16.209Z,1.92
2022-12-12T22:55:17.860Z,1.88
2022-12-12T22:57:19.447Z,1.81
2022-12-12T22:59:21.346Z,1.89
2022-12-12T23:01:24.335Z,1.84
2022-12-12T23:03:26.009Z,1.79
2022-12-12T23:05:27.783Z,1.54
2022-12-12T23:07:29.421Z,1.52
2022-12-12T23:09:30.995Z,1.33
2022-12-12T23:11:33.482Z,1.30
2022-12-12T23:13:37.587Z,1.20
2022-12-12T23:15:42.480Z,1.07
2022-12-12T23:17:44.300Z,1.07
2022-12-12T23:19:46.221Z,0.94
2022-12-12T23:21:48.063Z,0.46
